createdAt,value
2019-03-02T00:01:52.431Z,101145.76
2019-03-02T00:04:20.939Z,101139.97
2019-03-02T00:06:49.469Z,101143.81
2019-03-02T00:09:18.009Z,101142.85
2019-03-02T00:11:46.576Z,101149.54
2019-03-02T00:14:15.717Z,101142.81
2019-03-02T00:16:45.784Z,101148.33
2019-03-02T00:19:14.296Z,101155.35
2019-03-02T00:21:42.887Z,101146.27
2019-03-02T00:24:11.457Z,101149.95
2019-03-02T00:26:42.899Z,101150.84
2019-03-02T00:29:11.068Z,101159.09
2019-03-02T00:31:40.584Z,101154.01
2019-03-02T00:34:09.181Z,101150.59
2019-03-02T00:36:37.769Z,101152.39
2019-03-02T00:39:46.217Z,101147.83
2019-03-02T00:42:17.056Z,101148.75
2019-03-02T00:44:45.258Z,101148.08
2019-03-02T00:47:13.801Z,101141.70
2019-03-02T00:49:42.350Z,101139.66
2019-03-02T00:52:10.983Z,101144.47
2019-03-02T00:54:39.565Z,101146.27
2019-03-02T00:57:08.140Z,101139.18
2019-03-02T00:59:39.373Z,101144.91
2019-03-02T01:04:42.057Z,101147.36
2019-03-02T01:07:10.597Z,101149.25
2019-03-02T01:09:39.145Z,101139.73
2019-03-02T01:12:09.126Z,101135.84
2019-03-02T01:14:37.841Z,101133.08
2019-03-02T01:17:06.809Z,101135.80
2019-03-02T01:19:35.815Z,101128.94
2019-03-02T01:22:04.374Z,101134.30
2019-03-02T01:24:35.617Z,101132.72
2019-03-02T01:27:43.218Z,101128.39
2019-03-02T01:30:51.722Z,101119.62
2019-03-02T01:33:20.249Z,101127.61
2019-03-02T01:35:48.827Z,101126.11
2019-03-02T01:38:18.690Z,101127.08
2019-03-02T01:40:47.619Z,101128.04
2019-03-02T01:43:16.249Z,101128.80
2019-03-02T01:45:44.903Z,101129.11
2019-03-02T01:48:13.517Z,101123.39
2019-03-02T01:50:43.973Z,101121.43
2019-03-02T01:53:12.505Z,101121.25
2019-03-02T01:55:40.991Z,101119.78
2019-03-02T01:58:09.635Z,101111.14
2019-03-02T02:00:38.171Z,101108.49
2019-03-02T02:03:08.491Z,101107.78
2019-03-02T02:05:37.160Z,101112.45
2019-03-02T02:08:05.669Z,101106.89
2019-03-02T02:10:34.404Z,101106.51
2019-03-02T02:15:51.982Z,101098.88
2019-03-02T02:18:20.553Z,101092.14
2019-03-02T02:20:50.379Z,101099.23
2019-03-02T02:23:19.892Z,101099.59
2019-03-02T02:25:48.462Z,101087.94
2019-03-02T02:28:16.996Z,101084.33
2019-03-02T02:30:45.557Z,101081.08
2019-03-02T02:33:14.128Z,101078.16
2019-03-02T02:35:42.689Z,101075.14
2019-03-02T02:38:16.113Z,101074.83
2019-03-02T02:40:41.989Z,101074.48
2019-03-02T02:43:10.449Z,101061.77
2019-03-02T02:45:39.011Z,101063.61
2019-03-02T02:48:07.891Z,101071.00
2019-03-02T02:50:36.562Z,101066.78
2019-03-02T02:53:06.827Z,101067.14
2019-03-02T02:55:36.154Z,101065.11
2019-03-02T02:58:05.735Z,101064.84
2019-03-02T03:00:35.754Z,101057.27
2019-03-02T03:03:04.534Z,101068.53
2019-03-02T03:05:33.195Z,101058.89
2019-03-02T03:08:01.825Z,101056.86
2019-03-02T03:13:19.535Z,101057.36
2019-03-02T03:18:37.052Z,101055.08
2019-03-02T03:21:05.639Z,101055.27
2019-03-02T03:23:34.203Z,101055.88
2019-03-02T03:26:22.525Z,101057.02
2019-03-02T03:34:01.727Z,101061.63
2019-03-02T03:36:33.873Z,101059.34
2019-03-02T03:39:02.692Z,101059.17
2019-03-02T03:41:30.910Z,101062.29
2019-03-02T03:43:59.506Z,101063.45
2019-03-02T03:46:27.950Z,101058.10
2019-03-02T03:48:57.823Z,101062.11
2019-03-02T03:51:30.460Z,101059.35
2019-03-02T03:54:01.742Z,101062.67
2019-03-02T03:57:07.168Z,101063.34
2019-03-02T03:59:35.907Z,101063.28
2019-03-02T04:02:04.469Z,101066.61
2019-03-02T04:04:33.014Z,101059.52
2019-03-02T04:07:06.318Z,101051.39
2019-03-02T04:09:31.845Z,101052.25
2019-03-02T04:12:00.486Z,101055.53
2019-03-02T04:14:29.029Z,101061.22
2019-03-02T04:17:00.555Z,101055.23
2019-03-02T04:19:47.493Z,101059.11
2019-03-02T04:22:55.958Z,101063.27
2019-03-02T04:25:24.565Z,101057.63
2019-03-02T04:27:55.893Z,101057.34
2019-03-02T04:30:30.584Z,101054.09
2019-03-02T04:32:53.869Z,101057.27
2019-03-02T04:35:22.410Z,101060.31
2019-03-02T04:37:50.980Z,101066.12
2019-03-02T04:40:23.314Z,101064.75
2019-03-02T04:45:25.174Z,101056.43
2019-03-02T04:47:54.606Z,101049.83
2019-03-02T04:50:26.942Z,101053.39
2019-03-02T04:52:54.795Z,101052.79
2019-03-02T04:55:23.370Z,101056.59
2019-03-02T04:57:52.058Z,101057.91
2019-03-02T05:00:20.675Z,101060.39
2019-03-02T05:02:51.600Z,101053.79
2019-03-02T05:05:19.444Z,101045.75
2019-03-02T05:07:48.041Z,101040.59
2019-03-02T05:10:16.674Z,101043.11
2019-03-02T05:12:45.278Z,101040.59
2019-03-02T05:15:34.673Z,101046.11
2019-03-02T05:18:03.221Z,101041.87
2019-03-02T05:20:32.629Z,101049.39
2019-03-02T05:23:01.964Z,101046.27
2019-03-02T05:28:18.280Z,101046.59
2019-03-02T05:30:46.757Z,101049.46
2019-03-02T05:33:15.311Z,101048.38
2019-03-02T05:35:43.869Z,101051.81
2019-03-02T05:38:15.261Z,101047.60
2019-03-02T05:40:42.727Z,101053.49
2019-03-02T05:43:11.193Z,101054.09
2019-03-02T05:45:39.689Z,101052.05
2019-03-02T05:48:08.255Z,101054.05
2019-03-02T05:50:36.850Z,101049.61
2019-03-02T05:53:05.331Z,101056.08
2019-03-02T05:55:33.874Z,101059.32
2019-03-02T05:58:02.363Z,101059.40
2019-03-02T06:00:33.869Z,101059.63
2019-03-02T06:03:01.304Z,101063.61
2019-03-02T06:05:29.874Z,101060.17
2019-03-02T06:08:00.517Z,101059.33
2019-03-02T06:10:29.039Z,101061.42
2019-03-02T06:12:57.614Z,101061.14
2019-03-02T06:15:26.215Z,101057.00
2019-03-02T06:17:54.686Z,101054.47
2019-03-02T06:20:23.189Z,101054.55
2019-03-02T06:22:52.334Z,101054.66
2019-03-02T06:25:23.190Z,101059.94
2019-03-02T06:27:52.356Z,101055.97
2019-03-02T06:30:40.650Z,101059.41
2019-03-02T06:33:10.498Z,101063.12
2019-03-02T06:35:39.458Z,101060.19
2019-03-02T06:38:08.015Z,101074.48
2019-03-02T06:40:36.631Z,101071.13
2019-03-02T06:43:05.246Z,101074.13
2019-03-02T06:45:33.789Z,101065.10
2019-03-02T06:48:02.351Z,101074.19
2019-03-02T06:50:31.791Z,101071.86
2019-03-02T06:53:01.742Z,101072.56
2019-03-02T06:55:31.475Z,101079.23
2019-03-02T06:57:59.980Z,101083.97
2019-03-02T07:00:28.584Z,101085.74
2019-03-02T07:02:57.197Z,101085.22
2019-03-02T07:05:25.813Z,101084.02
2019-03-02T07:07:57.292Z,101075.33
2019-03-02T07:10:24.829Z,101077.17
2019-03-02T07:15:43.769Z,101086.80
2019-03-02T07:18:31.927Z,101078.03
2019-03-02T07:21:02.934Z,101080.02
2019-03-02T07:23:30.854Z,101075.31
2019-03-02T07:25:59.488Z,101074.66
2019-03-02T07:28:28.205Z,101070.69
2019-03-02T07:30:56.765Z,101075.09
2019-03-02T07:33:25.326Z,101082.48
2019-03-02T07:35:55.507Z,101076.66
2019-03-02T07:38:24.636Z,101076.94
2019-03-02T07:43:47.871Z,101075.62
2019-03-02T07:46:16.519Z,101069.09
2019-03-02T07:48:45.175Z,101066.02
2019-03-02T07:51:13.860Z,101074.06
2019-03-02T07:53:42.399Z,101078.80
2019-03-02T07:56:32.484Z,101084.41
2019-03-02T07:59:00.563Z,101080.59
2019-03-02T08:01:29.117Z,101081.99
2019-03-02T08:04:38.473Z,101077.73
2019-03-02T08:07:07.988Z,101087.57
2019-03-02T08:09:36.616Z,101084.09
2019-03-02T08:12:05.135Z,101078.98
2019-03-02T08:14:33.769Z,101075.34
2019-03-02T08:17:02.466Z,101071.66
2019-03-02T08:19:31.028Z,101070.39
2019-03-02T08:21:59.631Z,101069.45
2019-03-02T08:24:28.248Z,101066.37
2019-03-02T08:26:56.867Z,101064.03
2019-03-02T08:29:25.454Z,101066.00
2019-03-02T08:31:53.997Z,101067.33
2019-03-02T08:34:22.674Z,101064.25
2019-03-02T08:36:54.233Z,101067.58
2019-03-02T08:39:21.952Z,101064.39
2019-03-02T08:41:50.711Z,101065.23
2019-03-02T08:44:19.893Z,101068.36
2019-03-02T08:46:49.928Z,101068.59
2019-03-02T08:49:18.843Z,101068.46
2019-03-02T08:51:47.416Z,101069.78
2019-03-02T08:54:17.884Z,101067.31
2019-03-02T08:56:47.726Z,101067.37
2019-03-02T08:59:16.781Z,101066.47
2019-03-02T09:01:45.431Z,101070.95
2019-03-02T09:04:15.114Z,101075.22
2019-03-02T09:06:44.435Z,101072.44
2019-03-02T09:09:13.039Z,101070.25
2019-03-02T09:11:44.439Z,101071.34
2019-03-02T09:14:12.697Z,101066.50
2019-03-02T09:16:42.619Z,101063.80
2019-03-02T09:19:12.597Z,101069.63
2019-03-02T09:21:41.313Z,101064.11
2019-03-02T09:24:13.012Z,101071.63
2019-03-02T09:26:40.465Z,101070.47
2019-03-02T09:29:08.966Z,101065.02
2019-03-02T09:34:27.518Z,101070.66
2019-03-02T09:36:56.805Z,101074.34
2019-03-02T09:39:25.311Z,101074.63
2019-03-02T09:41:53.894Z,101074.66
2019-03-02T09:44:22.541Z,101072.59
2019-03-02T09:46:51.177Z,101067.19
2019-03-02T09:49:19.846Z,101073.70
2019-03-02T09:51:49.317Z,101075.83
2019-03-02T09:54:19.453Z,101074.31
2019-03-02T09:56:47.851Z,101076.28
2019-03-02T09:59:16.678Z,101068.92
2019-03-02T10:01:45.256Z,101072.95
2019-03-02T10:04:13.770Z,101076.16
2019-03-02T10:06:42.433Z,101079.98
2019-03-02T10:09:50.903Z,101077.05
2019-03-02T10:12:19.437Z,101075.66
2019-03-02T10:14:48.108Z,101076.23
2019-03-02T10:17:16.651Z,101077.42
2019-03-02T10:19:45.242Z,101072.98
2019-03-02T10:22:14.193Z,101073.34
2019-03-02T10:24:42.741Z,101068.61
2019-03-02T10:27:11.323Z,101075.83
2019-03-02T10:29:39.950Z,101078.61
2019-03-02T10:32:21.506Z,101081.48
2019-03-02T10:34:50.030Z,101088.17
2019-03-02T10:37:18.658Z,101082.78
2019-03-02T10:39:47.214Z,101080.64
2019-03-02T10:42:15.888Z,101084.97
2019-03-02T10:44:44.638Z,101088.95
2019-03-02T10:47:14.859Z,101082.79
2019-03-02T10:49:44.648Z,101088.76
2019-03-02T10:52:14.469Z,101088.02
2019-03-02T10:54:44.716Z,101081.06
2019-03-02T10:57:13.230Z,101081.84
2019-03-02T10:59:41.822Z,101079.73
2019-03-02T11:02:10.902Z,101079.88
2019-03-02T11:04:58.604Z,101075.59
2019-03-02T11:10:35.453Z,101081.20
2019-03-02T11:13:23.199Z,101082.72
2019-03-02T11:16:10.902Z,101081.97
2019-03-02T11:18:58.612Z,101083.58
2019-03-02T11:24:35.894Z,101077.04
2019-03-02T11:27:23.546Z,101079.48
2019-03-02T11:32:46.762Z,101080.24
2019-03-02T11:35:34.475Z,101077.68
2019-03-02T11:38:22.075Z,101076.57
2019-03-02T11:41:10.337Z,101068.89
2019-03-02T11:43:57.991Z,101074.54
2019-03-02T11:49:30.046Z,101058.43
2019-03-02T11:52:10.530Z,101062.89
2019-03-02T11:55:00.906Z,101055.47
2019-03-02T12:03:18.249Z,101052.38
2019-03-02T12:06:07.035Z,101049.26
2019-03-02T12:11:31.491Z,101039.07
2019-03-02T12:17:00.131Z,101036.55
2019-03-02T12:19:48.069Z,101032.48
2019-03-02T12:22:35.727Z,101031.36
2019-03-02T12:28:18.186Z,101027.54
2019-03-02T12:31:05.886Z,101029.33
2019-03-02T12:33:54.013Z,101025.23
2019-03-02T12:36:43.054Z,101020.55
2019-03-02T12:39:30.634Z,101022.19
2019-03-02T12:42:18.348Z,101024.53
2019-03-02T12:47:55.142Z,101021.89
2019-03-02T12:50:42.859Z,101021.33
2019-03-02T12:53:30.513Z,101018.65
2019-03-02T12:56:18.226Z,101020.16
2019-03-02T12:59:05.913Z,101015.16
2019-03-02T13:04:32.570Z,101014.80
2019-03-02T13:07:20.233Z,101004.04
2019-03-02T13:10:07.837Z,101006.68
2019-03-02T13:12:55.534Z,101004.59
2019-03-02T13:18:32.521Z,101002.78
2019-03-02T13:24:09.637Z,100986.41
2019-03-02T13:26:57.243Z,100991.12
2019-03-02T13:34:55.463Z,100990.38
2019-03-02T13:37:43.128Z,100989.41
2019-03-02T13:40:33.571Z,100987.26
2019-03-02T13:46:09.637Z,100981.96
2019-03-02T13:48:58.176Z,100979.41
2019-03-02T13:51:46.715Z,100970.75
2019-03-02T13:57:23.842Z,100965.22
2019-03-02T14:00:11.537Z,100958.48
2019-03-02T14:02:59.682Z,100959.56
2019-03-02T14:05:47.446Z,100957.02
2019-03-02T14:11:32.464Z,100959.81
2019-03-02T14:14:21.047Z,100955.94
2019-03-02T14:19:57.934Z,100955.11
2019-03-02T14:22:48.974Z,100956.29
2019-03-02T14:30:46.164Z,100947.98
2019-03-02T14:33:34.135Z,100950.25
2019-03-02T14:39:18.213Z,100938.70
2019-03-02T14:51:07.137Z,100937.77
2019-03-02T14:54:09.481Z,100934.83
2019-03-02T14:56:48.375Z,100935.50
2019-03-02T14:59:37.752Z,100921.31
2019-03-02T15:07:59.970Z,100938.33
2019-03-02T15:10:48.068Z,100944.78
2019-03-02T15:13:35.761Z,100947.74
2019-03-02T15:16:44.223Z,100936.89
2019-03-02T15:19:31.851Z,100935.60
2019-03-02T15:22:20.444Z,100937.38
2019-03-02T15:25:08.991Z,100926.78
2019-03-02T15:27:57.415Z,100923.64
2019-03-02T15:33:37.635Z,100930.41
2019-03-02T15:36:24.542Z,100931.95
2019-03-02T15:39:12.813Z,100923.78
2019-03-02T15:44:50.745Z,100924.75
2019-03-02T15:47:38.423Z,100918.52
2019-03-02T15:50:46.877Z,100921.13
2019-03-02T15:56:24.464Z,100916.94
2019-03-02T16:04:39.083Z,100907.91
2019-03-02T16:10:05.595Z,100900.12
2019-03-02T16:15:48.967Z,100908.30
2019-03-02T16:18:38.442Z,100900.34
2019-03-02T16:21:26.878Z,100904.07
2019-03-02T16:24:14.376Z,100905.26
2019-03-02T16:29:40.871Z,100911.37
2019-03-02T16:32:51.825Z,100903.52
2019-03-02T16:35:40.383Z,100903.84
2019-03-02T16:38:31.015Z,100903.70
2019-03-02T16:41:17.505Z,100899.89
2019-03-02T16:46:44.450Z,100893.19
2019-03-02T16:49:32.174Z,100898.58
2019-03-02T16:52:20.136Z,100892.94
2019-03-02T16:55:09.510Z,100889.05
2019-03-02T16:57:57.314Z,100893.64
2019-03-02T17:00:48.604Z,100882.78
2019-03-02T17:03:35.002Z,100890.63
2019-03-02T17:11:43.422Z,100890.01
2019-03-02T17:14:31.120Z,100889.75
2019-03-02T17:17:18.807Z,100876.55
2019-03-02T17:25:20.868Z,100878.00
2019-03-02T17:28:08.530Z,100875.14
2019-03-02T17:30:58.195Z,100875.70
2019-03-02T17:33:45.651Z,100871.34
2019-03-02T17:39:12.310Z,100883.97
2019-03-02T17:44:35.690Z,100886.99
2019-03-02T17:52:34.672Z,100883.80
2019-03-02T17:58:11.532Z,100888.58
2019-03-02T18:00:59.195Z,100889.77
2019-03-02T18:03:50.180Z,100894.13
2019-03-02T18:09:05.750Z,100893.73
2019-03-02T18:11:54.751Z,100892.14
2019-03-02T18:14:44.196Z,100888.66
2019-03-02T18:17:32.308Z,100895.67
2019-03-02T18:22:56.127Z,100895.33
2019-03-02T18:25:25.022Z,100893.64
2019-03-02T18:30:24.316Z,100883.13
2019-03-02T18:35:53.495Z,100880.63
2019-03-02T18:38:22.177Z,100870.05
2019-03-02T18:40:52.155Z,100875.91
2019-03-02T18:43:21.234Z,100872.79
2019-03-02T18:45:49.941Z,100871.33
2019-03-02T18:54:22.977Z,100868.47
2019-03-02T18:57:31.436Z,100872.92
2019-03-02T19:00:00.137Z,100861.72
2019-03-02T19:02:29.144Z,100863.05
2019-03-02T19:04:59.553Z,100874.50
2019-03-02T19:07:28.091Z,100863.08
2019-03-02T19:09:56.749Z,100863.91
2019-03-02T19:12:28.004Z,100863.83
2019-03-02T19:14:57.793Z,100856.81
2019-03-02T19:17:26.116Z,100853.47
2019-03-02T19:19:54.891Z,100846.85
2019-03-02T19:22:23.734Z,100847.16
2019-03-02T19:24:52.448Z,100850.55
2019-03-02T19:27:22.821Z,100847.77
2019-03-02T19:29:51.340Z,100841.34
2019-03-02T19:32:19.961Z,100837.20
2019-03-02T19:34:48.680Z,100826.53
2019-03-02T19:37:17.277Z,100825.20
2019-03-02T19:39:45.836Z,100823.97
2019-03-02T19:53:52.082Z,100826.91
2019-03-02T19:56:21.290Z,100821.53
2019-03-02T19:58:50.635Z,100823.55
2019-03-02T20:06:36.116Z,100815.56
2019-03-02T20:09:44.640Z,100817.91
2019-03-02T20:12:13.416Z,100811.60
2019-03-02T20:14:42.117Z,100807.68
2019-03-02T20:17:10.821Z,100810.14
2019-03-02T20:22:31.731Z,100804.20
2019-03-02T20:25:00.577Z,100803.88
2019-03-02T20:27:29.232Z,100803.05
2019-03-02T20:29:57.946Z,100797.41
2019-03-02T20:32:26.637Z,100799.08
2019-03-02T20:34:55.404Z,100796.63
2019-03-02T20:37:24.051Z,100801.91
2019-03-02T20:39:52.708Z,100793.52
2019-03-02T20:42:40.458Z,100794.05
2019-03-02T20:45:48.960Z,100790.43
2019-03-02T20:48:57.683Z,100784.80
2019-03-02T20:51:26.336Z,100780.28
2019-03-02T20:53:54.880Z,100781.97
2019-03-02T20:56:23.494Z,100784.73
2019-03-02T20:58:54.636Z,100787.29
2019-03-02T21:04:13.212Z,100786.80
2019-03-02T21:06:42.304Z,100778.48
2019-03-02T21:09:11.104Z,100775.55
2019-03-02T21:11:39.592Z,100766.38
2019-03-02T21:14:08.245Z,100768.32
2019-03-02T21:16:36.884Z,100759.85
2019-03-02T21:19:24.631Z,100760.34
2019-03-02T21:21:53.303Z,100759.14
2019-03-02T21:24:21.867Z,100762.27
2019-03-02T21:26:50.324Z,100762.19
2019-03-02T21:29:18.934Z,100757.95
2019-03-02T21:31:47.603Z,100762.63
2019-03-02T21:34:16.261Z,100762.63
2019-03-02T21:36:44.894Z,100759.28
2019-03-02T21:39:53.459Z,100759.02
2019-03-02T21:42:22.018Z,100752.24
2019-03-02T21:44:52.631Z,100750.03
2019-03-02T21:47:20.806Z,100743.83
2019-03-02T21:49:49.348Z,100732.29
2019-03-02T21:52:18.319Z,100725.06
2019-03-02T21:54:48.446Z,100719.42
2019-03-02T21:57:17.080Z,100721.50
2019-03-02T21:59:45.641Z,100715.25
2019-03-02T22:02:14.571Z,100708.72
2019-03-02T22:04:43.150Z,100701.11
2019-03-02T22:07:11.870Z,100699.25
2019-03-02T22:09:40.443Z,100692.64
2019-03-02T22:17:58.043Z,100680.09
2019-03-02T22:20:26.680Z,100668.05
2019-03-02T22:22:55.277Z,100667.64
2019-03-02T22:26:03.997Z,100667.92
2019-03-02T22:28:32.953Z,100665.55
2019-03-02T22:31:01.842Z,100668.27
2019-03-02T22:33:30.409Z,100659.89
2019-03-02T22:35:58.813Z,100654.33
2019-03-02T22:38:27.264Z,100653.36
2019-03-02T22:40:55.963Z,100640.06
2019-03-02T22:43:24.403Z,100644.37
2019-03-02T22:45:53.183Z,100646.81
2019-03-02T22:48:21.868Z,100662.14
2019-03-02T22:50:50.400Z,100659.24
2019-03-02T22:53:18.977Z,100658.27
2019-03-02T22:55:47.642Z,100652.98
2019-03-02T23:01:49.705Z,100657.84
2019-03-02T23:04:37.680Z,100649.16
2019-03-02T23:07:06.323Z,100647.70
2019-03-02T23:09:35.217Z,100649.64
2019-03-02T23:14:52.872Z,100644.45
2019-03-02T23:17:21.425Z,100659.24
2019-03-02T23:19:49.974Z,100652.98
2019-03-02T23:22:18.574Z,100639.46
2019-03-02T23:24:47.594Z,100624.55
2019-03-02T23:27:16.591Z,100620.72
2019-03-02T23:29:45.199Z,100616.41
2019-03-02T23:32:13.787Z,100615.08
2019-03-02T23:34:42.401Z,100610.98
2019-03-02T23:37:10.995Z,100608.16
2019-03-02T23:39:39.639Z,100602.03
2019-03-02T23:42:08.340Z,100596.26
2019-03-02T23:44:37.004Z,100590.45
2019-03-02T23:47:05.737Z,100584.36
2019-03-02T23:49:34.278Z,100578.23
2019-03-02T23:52:02.810Z,100577.58
2019-03-02T23:54:32.044Z,100587.01
2019-03-02T23:57:00.929Z,100578.48
2019-03-02T23:59:29.632Z,100581.66
